Terminal Aerodrome Forecast
Issued by NWS Cleveland, OH

Home | Current Version | Previous Version | Graphics & Text | Print | Product List | Glossary On
Versions: 1 2 3 4 5 6 7 8 9 10 11 12 13 14 15 16 17 18 19 20 21 22 23 24 25 26 27 28 29 30 31 32 33
000
FTUS41 KCLE 181100
TAFCLE
TAF
KCLE 181120Z 1812/1918 10005KT P6SM BKN035 OVC090
     FM181500 08006KT P6SM BKN050
     FM182100 03008KT P6SM BKN100
     FM190000 07005KT P6SM BKN250
     FM191000 VRB03KT 4SM BR BKN100
     FM191300 13005KT P6SM BKN250=

USA.gov is the U.S. government's official web portal to all federal, state and local government web resources and services.